Time;durP1;ratioP1;P1;durP2;ratioP2;P2;SDS_P1;SDS_P2;PMS_P1;PMS_P2;Temp;Humidity;BMP_temperature;BMP_pressure;BME280_temperature;BME280_humidity;BME280_pressure;Samples;Min_cycle;Max_cycle;Signal;HPM_P1;HPM_P2
2023/03/08 00:00:00;;;;;;;8.15;6.50;;;;;;;16.34;47.08;98461.69;5092598;28;20132;-70
2023/03/08 00:02:25;;;;;;;8.40;6.57;;;;;;;16.31;47.16;98472.38;5092095;28;20433;-71
2023/03/08 00:04:54;;;;;;;8.88;6.90;;;;;;;16.34;46.80;98474.88;5092516;28;20024;-70
2023/03/08 00:07:20;;;;;;;9.57;7.50;;;;;;;16.32;47.28;98468.81;5092589;28;20024;-68
2023/03/08 00:09:45;;;;;;;8.68;6.10;;;;;;;16.30;47.17;98478.59;5092429;28;20380;-71
2023/03/08 00:12:11;;;;;;;9.00;6.22;;;;;;;16.31;47.23;98482.06;5092549;28;20369;-70
2023/03/08 00:14:36;;;;;;;8.85;6.80;;;;;;;16.31;47.31;98469.75;5092152;28;20424;-70
2023/03/08 00:17:02;;;;;;;8.63;6.45;;;;;;;16.31;46.88;98461.84;5092045;28;20388;-69
2023/03/08 00:19:27;;;;;;;8.85;7.00;;;;;;;16.31;47.09;98455.72;5092166;28;20024;-70
2023/03/08 00:21:53;;;;;;;7.95;5.63;;;;;;;16.34;47.13;98440.63;5092239;28;20036;-69
2023/03/08 00:24:18;;;;;;;8.23;6.60;;;;;;;16.31;47.01;98437.31;5092175;28;20028;-70
2023/03/08 00:26:44;;;;;;;7.88;6.47;;;;;;;16.26;47.34;98437.59;5092262;28;20038;-70
2023/03/08 00:29:10;;;;;;;7.63;5.75;;;;;;;16.28;47.25;98443.63;5092098;28;20396;-71
2023/03/08 00:31:35;;;;;;;7.35;5.65;;;;;;;16.24;47.34;98439.47;5090507;28;20078;-70
2023/03/08 00:34:01;;;;;;;7.05;5.55;;;;;;;16.24;47.12;98428.94;5092190;28;20036;-70
2023/03/08 00:36:26;;;;;;;7.95;5.88;;;;;;;16.27;46.90;98439.28;5092145;28;20077;-70
2023/03/08 00:38:52;;;;;;;7.80;5.72;;;;;;;16.27;47.03;98439.28;5092116;28;20034;-70
2023/03/08 00:41:18;;;;;;;7.10;5.22;;;;;;;16.26;47.14;98442.84;5092294;28;20107;-70
2023/03/08 00:43:44;;;;;;;7.57;5.53;;;;;;;16.21;47.33;98431.72;5092127;28;20059;-71
2023/03/08 00:46:11;;;;;;;7.88;5.28;;;;;;;16.23;47.29;98417.53;5091375;28;20064;-69
2023/03/08 00:48:36;;;;;;;7.80;5.78;;;;;;;16.23;47.17;98411.44;5092571;28;20078;-70
2023/03/08 00:51:02;;;;;;;7.30;5.10;;;;;;;16.21;47.38;98419.44;5092850;28;20462;-70
2023/03/08 00:53:28;;;;;;;7.53;4.80;;;;;;;16.26;47.13;98427.06;5092601;28;20128;-70
2023/03/08 00:55:56;;;;;;;7.43;4.72;;;;;;;16.26;46.79;98416.53;5092093;28;20512;-70
2023/03/08 00:58:23;;;;;;;6.32;4.75;;;;;;;16.26;47.21;98411.25;5092239;28;20106;-70
2023/03/08 01:00:48;;;;;;;6.22;4.60;;;;;;;16.28;47.00;98404.13;5091920;28;20047;-70
2023/03/08 01:03:15;;;;;;;7.65;5.15;;;;;;;16.26;47.05;98395.47;5092281;28;20480;-69
2023/03/08 01:05:42;;;;;;;7.75;5.47;;;;;;;16.24;46.88;98386.81;5092075;28;20059;-69
2023/03/08 01:08:08;;;;;;;6.53;4.65;;;;;;;16.27;47.04;98396.31;5092361;28;20107;-70
2023/03/08 01:10:34;;;;;;;6.35;5.18;;;;;;;16.21;47.15;98386.97;5091148;28;20031;-69
2023/03/08 01:13:00;;;;;;;6.55;4.72;;;;;;;16.24;47.04;98386.81;5091543;28;20096;-70
2023/03/08 01:15:25;;;;;;;6.88;4.60;;;;;;;16.27;46.95;98393.69;5094223;28;20464;-68
2023/03/08 01:17:51;;;;;;;5.90;4.78;;;;;;;16.24;47.07;98397.34;5095472;28;20020;-69
2023/03/08 01:20:16;;;;;;;7.45;4.80;;;;;;;16.21;47.19;98382.56;5095649;28;20020;-70
2023/03/08 01:22:42;;;;;;;6.20;4.40;;;;;;;16.21;47.14;98387.84;5095603;28;20035;-70
2023/03/08 01:25:08;;;;;;;6.90;4.75;;;;;;;16.22;46.91;98384.28;5095572;28;20032;-70
2023/03/08 01:27:33;;;;;;;7.18;5.20;;;;;;;16.23;47.11;98383.31;5095677;28;20210;-70
2023/03/08 01:29:59;;;;;;;6.75;4.63;;;;;;;16.20;47.25;98380.88;5095092;28;20034;-70
2023/03/08 01:32:24;;;;;;;6.97;5.35;;;;;;;16.22;46.92;98389.53;5095262;28;20093;-70
2023/03/08 01:34:50;;;;;;;6.18;4.78;;;;;;;16.25;46.95;98377.97;5095389;28;20032;-70
2023/03/08 01:37:15;;;;;;;6.43;4.57;;;;;;;16.18;47.10;98376.66;5095305;28;20024;-71
2023/03/08 01:39:41;;;;;;;5.93;4.43;;;;;;;16.17;47.12;98362.63;5095212;28;20032;-70
2023/03/08 01:42:06;;;;;;;7.00;4.38;;;;;;;16.19;46.93;98333.59;5095205;28;20031;-68
2023/03/08 01:45:27;;;;;;;6.15;4.50;;;;;;;16.16;47.12;98352.19;5094833;28;20034;-70
2023/03/08 01:47:52;;;;;;;7.65;4.70;;;;;;;16.18;47.18;98334.53;5052579;28;20025;-70
2023/03/08 01:50:18;;;;;;;6.97;5.13;;;;;;;16.16;47.12;98347.78;5052412;28;20049;-71
2023/03/08 01:52:48;;;;;;;6.70;4.15;;;;;;;16.17;46.86;98338.09;5052407;28;20533;-68
2023/03/08 01:55:15;;;;;;;6.65;4.90;;;;;;;16.15;47.00;98329.44;5052402;28;20060;-69
2023/03/08 01:57:44;;;;;;;7.28;4.95;;;;;;;16.14;47.11;98317.22;5052507;28;20045;-69
2023/03/08 02:00:16;;;;;;;6.03;4.40;;;;;;;16.10;47.08;98317.41;5052077;28;20028;-70
2023/03/08 02:02:51;;;;;;;5.97;4.57;;;;;;;16.13;47.15;98331.31;5052429;28;20076;-70
2023/03/08 02:05:17;;;;;;;6.57;4.70;;;;;;;16.10;47.00;98338.47;5052305;28;20028;-69
2023/03/08 02:07:43;;;;;;;5.88;4.15;;;;;;;16.14;46.93;98344.41;5052178;28;20090;-70
2023/03/08 02:10:10;;;;;;;6.18;4.35;;;;;;;16.15;46.93;98345.22;5052360;28;20033;-70
2023/03/08 02:12:37;;;;;;;6.03;4.38;;;;;;;16.13;46.93;98349.75;5052166;28;20048;-70
2023/03/08 02:15:05;;;;;;;5.88;4.13;;;;;;;16.15;47.16;98345.22;5051493;28;20420;-71
2023/03/08 02:17:34;;;;;;;6.05;4.03;;;;;;;16.10;47.17;98338.47;5052166;28;20552;-70
2023/03/08 02:20:15;;;;;;;5.63;4.40;;;;;;;16.15;46.87;98325.03;5052126;28;20057;-70
2023/03/08 02:22:42;;;;;;;6.45;4.40;;;;;;;16.13;46.99;98310.28;5093668;28;20071;-69
2023/03/08 02:25:22;;;;;;;5.82;4.07;;;;;;;16.12;47.02;98313.84;5094126;28;20021;-70
2023/03/08 02:27:49;;;;;;;5.72;4.28;;;;;;;16.14;47.06;98319.84;5093662;28;20107;-70
2023/03/08 02:30:24;;;;;;;6.18;4.45;;;;;;;16.13;46.86;98315.53;5093118;28;20023;-69
2023/03/08 02:32:50;;;;;;;6.10;4.43;;;;;;;16.15;47.09;98313.66;5094645;28;20484;-70
2023/03/08 02:35:15;;;;;;;6.05;4.28;;;;;;;16.11;47.17;98307.72;5094394;28;20026;-71
2023/03/08 02:37:41;;;;;;;5.45;3.67;;;;;;;16.15;46.83;98295.22;5094541;28;20108;-70
2023/03/08 02:40:07;;;;;;;6.13;4.60;;;;;;;16.12;46.92;98298.88;5094987;28;20024;-71
2023/03/08 02:42:33;;;;;;;5.85;4.20;;;;;;;16.13;46.86;98299.75;5093774;28;20050;-71
2023/03/08 02:44:58;;;;;;;5.45;4.00;;;;;;;16.10;46.91;98295.50;5094130;28;20472;-70
2023/03/08 02:47:23;;;;;;;5.97;4.05;;;;;;;16.13;47.06;98283.94;5093988;28;20024;-70
2023/03/08 02:49:49;;;;;;;5.85;4.07;;;;;;;16.10;47.00;98280.56;5093821;28;20427;-70
2023/03/08 02:52:14;;;;;;;5.80;3.92;;;;;;;16.12;46.85;98277.81;5094059;28;20387;-70
2023/03/08 02:54:40;;;;;;;6.18;4.20;;;;;;;16.12;46.92;98266.47;5093474;28;20115;-71
2023/03/08 02:57:05;;;;;;;5.07;3.90;;;;;;;16.08;46.90;98277.16;5093317;28;20540;-71
2023/03/08 02:59:31;;;;;;;5.70;4.18;;;;;;;16.09;47.22;98270.97;5093737;28;20023;-71
2023/03/08 03:01:56;;;;;;;5.38;3.72;;;;;;;16.10;46.91;98270.03;5093664;28;20420;-70
2023/03/08 03:04:22;;;;;;;5.85;4.00;;;;;;;16.11;47.05;98281.41;5093475;28;20095;-70
2023/03/08 03:06:47;;;;;;;5.63;3.97;;;;;;;16.09;47.06;98273.59;5093622;28;20035;-70
2023/03/08 03:09:13;;;;;;;4.72;3.55;;;;;;;16.09;47.03;98272.75;5093385;28;20357;-70
2023/03/08 03:11:39;;;;;;;6.32;4.28;;;;;;;16.09;46.95;98259.59;5093207;28;20061;-70
2023/03/08 03:14:04;;;;;;;5.75;4.25;;;;;;;16.07;46.93;98249.16;5092094;28;20093;-70
2023/03/08 03:16:30;;;;;;;6.57;4.43;;;;;;;16.08;47.29;98245.59;5093310;28;20027;-70
2023/03/08 03:18:55;;;;;;;5.68;3.97;;;;;;;16.05;47.03;98251.06;5091945;28;20027;-69
2023/03/08 03:21:22;;;;;;;5.35;3.58;;;;;;;16.08;46.88;98256.13;5093293;28;20031;-69
2023/03/08 03:23:47;;;;;;;5.95;4.03;;;;;;;16.06;47.21;98263.25;5093294;28;20031;-70
2023/03/08 03:26:16;;;;;;;6.07;3.92;;;;;;;16.04;47.16;98254.59;5092917;28;20484;-70
2023/03/08 03:28:42;;;;;;;6.63;4.07;;;;;;;16.08;47.18;98256.13;5092936;28;20484;-70
2023/03/08 03:31:09;;;;;;;5.63;4.45;;;;;;;16.05;46.98;98261.56;5093117;28;20054;-71
2023/03/08 03:33:35;;;;;;;6.28;4.40;;;;;;;16.05;47.04;98245.78;5093020;28;20028;-70
2023/03/08 03:36:01;;;;;;;6.45;4.25;;;;;;;16.06;47.17;98242.22;5091572;28;20035;-69
2023/03/08 03:38:26;;;;;;;5.75;3.88;;;;;;;16.06;47.21;98244.84;5092661;28;20028;-70
2023/03/08 03:41:00;;;;;;;6.47;3.50;;;;;;;16.06;47.19;98252.75;5092790;28;20055;-70
2023/03/08 03:43:25;;;;;;;5.88;3.70;;;;;;;16.10;46.94;98232.34;5072595;28;20028;-70
2023/03/08 03:45:59;;;;;;;5.32;3.63;;;;;;;16.07;46.97;98224.63;5072717;28;20176;-70
2023/03/08 03:48:24;;;;;;;4.97;3.30;;;;;;;16.09;46.85;98235.91;5072673;28;20381;-70
2023/03/08 03:51:18;;;;;;;5.13;3.60;;;;;;;16.09;47.02;98234.13;5072613;28;20441;-71
2023/03/08 03:53:44;;;;;;;5.28;3.20;;;;;;;16.12;46.93;98232.25;5070117;28;20044;-71
2023/03/08 03:56:21;;;;;;;5.45;3.60;;;;;;;16.12;46.86;98245.41;5077580;28;20024;-69
2023/03/08 03:58:48;;;;;;;5.53;3.15;;;;;;;16.10;46.91;98248.13;5092609;28;20035;-68
2023/03/08 04:01:17;;;;;;;4.82;3.10;;;;;;;16.12;46.75;98234.91;5092496;28;20031;-70
2023/03/08 04:03:43;;;;;;;5.47;3.20;;;;;;;16.13;46.77;98220.78;5091293;28;20031;-70
2023/03/08 04:06:13;;;;;;;5.18;3.22;;;;;;;16.11;46.83;98212.97;5092516;28;20028;-71
2023/03/08 04:08:41;;;;;;;4.93;3.53;;;;;;;16.12;46.64;98209.41;5092569;28;20032;-70
2023/03/08 04:11:08;;;;;;;4.22;3.05;;;;;;;16.12;46.78;98224.38;5092048;28;20031;-70
2023/03/08 04:13:33;;;;;;;5.40;3.22;;;;;;;16.14;46.69;98222.47;5092354;28;20039;-69
2023/03/08 04:15:59;;;;;;;4.65;3.10;;;;;;;16.13;46.66;98205.00;5092349;28;20028;-70
2023/03/08 04:18:24;;;;;;;5.15;3.60;;;;;;;16.12;46.65;98205.94;5092385;28;20115;-70
2023/03/08 04:20:50;;;;;;;4.13;3.00;;;;;;;16.14;46.69;98198.78;5092498;28;20028;-71
2023/03/08 04:23:15;;;;;;;4.85;3.42;;;;;;;16.11;46.80;98202.44;5092325;28;20063;-70
2023/03/08 04:25:40;;;;;;;5.18;3.30;;;;;;;16.10;46.78;98195.50;5091757;28;20024;-71
2023/03/08 04:28:06;;;;;;;5.03;2.95;;;;;;;16.12;46.72;98209.41;5092220;28;20031;-68
2023/03/08 04:30:31;;;;;;;4.63;3.00;;;;;;;16.11;46.92;98212.97;5091883;28;20095;-70
2023/03/08 04:32:56;;;;;;;4.10;2.95;;;;;;;16.12;46.75;98214.66;5092263;28;20028;-69
2023/03/08 04:35:22;;;;;;;3.60;2.45;;;;;;;16.12;46.98;98216.47;5090931;28;20056;-69
2023/03/08 04:37:47;;;;;;;4.72;3.00;;;;;;;16.13;46.90;98223.41;5092113;28;20028;-70
2023/03/08 04:40:13;;;;;;;4.75;3.38;;;;;;;16.09;47.12;98223.59;5091837;28;20032;-70
2023/03/08 04:42:39;;;;;;;4.90;3.15;;;;;;;16.07;46.93;98225.47;5092076;28;20107;-69
2023/03/08 04:45:06;;;;;;;4.93;3.25;;;;;;;16.07;47.08;98240.41;5092034;28;20032;-70
2023/03/08 04:47:32;;;;;;;4.60;2.80;;;;;;;16.10;46.94;98237.59;5092078;28;20051;-70
2023/03/08 04:49:57;;;;;;;4.47;2.80;;;;;;;16.10;46.91;98243.72;5094051;28;20460;-70
2023/03/08 04:52:23;;;;;;;4.43;2.95;;;;;;;16.09;46.79;98247.28;5096274;28;20035;-69
2023/03/08 04:54:48;;;;;;;6.03;3.25;;;;;;;16.10;46.71;98263.94;5096166;28;20107;-68
2023/03/08 04:57:14;;;;;;;4.15;2.88;;;;;;;16.09;46.78;98268.31;5096091;28;20393;-70
2023/03/08 04:59:41;;;;;;;4.60;2.90;;;;;;;16.12;46.88;98282.25;5096620;28;20031;-69
2023/03/08 05:02:07;;;;;;;3.92;2.63;;;;;;;16.12;46.67;98282.25;5096904;28;20028;-69
2023/03/08 05:04:32;;;;;;;4.50;2.90;;;;;;;16.10;46.71;98256.88;5096840;28;20035;-71
2023/03/08 05:06:57;;;;;;;4.20;2.90;;;;;;;16.09;47.00;98273.59;5096303;28;20107;-70
2023/03/08 05:09:23;;;;;;;4.55;2.65;;;;;;;16.11;46.50;98281.41;5096969;28;20147;-69
2023/03/08 05:11:48;;;;;;;4.40;2.60;;;;;;;16.10;46.73;98259.53;5095390;28;20494;-70
2023/03/08 05:14:13;;;;;;;5.07;3.10;;;;;;;16.10;46.88;98264.78;5096067;28;20455;-69
2023/03/08 05:16:39;;;;;;;4.25;2.83;;;;;;;16.12;46.76;98266.47;5096077;28;20661;-70
2023/03/08 05:19:04;;;;;;;4.80;2.72;;;;;;;16.10;46.67;98283.22;5096699;28;20031;-69
2023/03/08 05:21:30;;;;;;;4.68;2.70;;;;;;;16.13;46.66;98262.91;5095929;28;20183;-69
2023/03/08 05:23:58;;;;;;;3.65;2.40;;;;;;;16.09;46.88;98263.06;5097927;28;20020;-69
2023/03/08 05:26:24;;;;;;;4.13;2.53;;;;;;;16.12;46.83;98261.22;5095634;28;20035;-70
2023/03/08 05:28:50;;;;;;;4.45;2.70;;;;;;;16.10;46.60;98258.66;5095304;28;20028;-70
2023/03/08 05:31:20;;;;;;;4.13;2.42;;;;;;;16.09;46.51;98257.81;5095420;28;20042;-69
2023/03/08 05:33:49;;;;;;;3.65;2.28;;;;;;;16.12;46.52;98264.66;5095262;28;20028;-69
2023/03/08 05:36:16;;;;;;;4.18;2.33;;;;;;;16.10;46.53;98254.25;5095023;28;20440;-70
2023/03/08 05:38:42;;;;;;;4.55;2.70;;;;;;;16.12;46.83;98246.25;5095469;28;20445;-70
2023/03/08 05:41:12;;;;;;;4.10;2.70;;;;;;;16.08;46.65;98240.31;5095376;28;20039;-70
2023/03/08 05:43:37;;;;;;;5.00;2.90;;;;;;;16.09;46.87;98249.91;5095363;28;20051;-68
2023/03/08 05:46:08;;;;;;;4.03;2.65;;;;;;;16.11;46.74;98265.63;5094962;28;20099;-68
2023/03/08 05:48:34;;;;;;;4.13;2.38;;;;;;;16.10;46.79;98258.66;5095197;28;20040;-70
2023/03/08 05:51:12;;;;;;;4.18;2.63;;;;;;;16.11;46.86;98255.09;5094616;28;20690;-70
2023/03/08 05:53:38;;;;;;;4.53;2.45;;;;;;;16.08;46.94;98256.13;5094821;28;20028;-70
2023/03/08 05:56:08;;;;;;;4.50;3.00;;;;;;;16.05;46.76;98251.06;5094906;28;20051;-70
2023/03/08 05:58:34;;;;;;;5.10;3.17;;;;;;;16.04;46.68;98254.59;5094835;28;20137;-68
2023/03/08 06:01:10;;;;;;;4.25;2.85;;;;;;;16.07;46.73;98241.28;5094821;28;20032;-70
2023/03/08 06:03:36;;;;;;;4.10;2.92;;;;;;;16.06;47.00;98252.75;5094875;28;20046;-68
2023/03/08 06:06:01;;;;;;;4.57;2.95;;;;;;;16.04;46.93;98240.59;5094609;28;20543;-69
2023/03/08 06:08:26;;;;;;;4.60;2.80;;;;;;;16.05;46.98;98245.78;5094565;28;20055;-69
2023/03/08 06:10:52;;;;;;;4.45;3.05;;;;;;;16.02;46.75;98243.31;5094630;28;20020;-70
2023/03/08 06:13:17;;;;;;;4.55;3.03;;;;;;;16.03;46.96;98244.19;5094813;28;20032;-69
2023/03/08 06:15:43;;;;;;;4.80;2.75;;;;;;;16.06;46.88;98249.25;5094673;28;20020;-70
2023/03/08 06:18:08;;;;;;;3.42;2.38;;;;;;;16.06;46.84;98246.63;5094505;28;20028;-69
2023/03/08 06:20:34;;;;;;;4.45;2.55;;;;;;;16.07;46.81;98243.91;5093982;28;20028;-70
2023/03/08 06:22:59;;;;;;;5.97;2.53;;;;;;;16.07;46.83;98241.28;5094242;28;20501;-69
2023/03/08 06:25:25;;;;;;;4.07;2.40;;;;;;;16.05;46.98;98223.88;5094310;28;20027;-69
2023/03/08 06:27:50;;;;;;;3.78;2.58;;;;;;;16.06;46.82;98225.56;5094343;28;20111;-70
2023/03/08 06:30:16;;;;;;;5.05;2.92;;;;;;;16.03;46.97;98226.59;5094476;28;20392;-70
2023/03/08 06:32:41;;;;;;;4.28;2.75;;;;;;;16.01;46.93;98222.34;5093061;28;20026;-69
2023/03/08 06:35:07;;;;;;;4.80;3.13;;;;;;;16.00;46.93;98226.78;5093600;28;20561;-70
2023/03/08 06:37:34;;;;;;;4.38;2.95;;;;;;;16.00;47.25;98221.53;5094270;28;20027;-69
2023/03/08 06:40:00;;;;;;;5.72;3.13;;;;;;;15.94;47.42;98209.56;5094075;28;20048;-69
2023/03/08 06:42:26;;;;;;;4.57;2.80;;;;;;;15.94;47.51;98208.75;5094150;28;20099;-70
2023/03/08 06:44:52;;;;;;;3.95;2.95;;;;;;;15.94;47.37;98206.13;5094071;28;20056;-70
2023/03/08 06:47:17;;;;;;;4.13;2.85;;;;;;;15.93;47.60;98204.44;5093916;28;20532;-70
2023/03/08 06:49:42;;;;;;;4.53;2.80;;;;;;;15.92;47.66;98205.31;5093404;28;20040;-70
2023/03/08 06:52:08;;;;;;;6.20;3.10;;;;;;;15.90;47.50;98194.03;5093999;28;20030;-70
2023/03/08 06:54:33;;;;;;;4.82;2.92;;;;;;;15.92;47.57;98207.94;5093703;28;20438;-70
2023/03/08 06:56:59;;;;;;;4.22;3.03;;;;;;;15.90;47.88;98208.06;5093549;28;20027;-69
2023/03/08 06:59:24;;;;;;;5.05;2.95;;;;;;;15.87;47.65;98202.13;5093928;28;20024;-70
2023/03/08 07:01:49;;;;;;;4.18;2.85;;;;;;;15.84;47.97;98196.09;5093727;28;20483;-70
2023/03/08 07:04:17;;;;;;;5.00;2.85;;;;;;;15.86;47.72;98203.03;5093401;28;20020;-70
2023/03/08 07:06:43;;;;;;;5.03;2.95;;;;;;;15.87;48.08;98204.75;5093497;28;20062;-70
2023/03/08 07:09:08;;;;;;;4.90;2.50;;;;;;;15.83;47.80;98210.19;5094989;28;20434;-70
2023/03/08 07:11:34;;;;;;;3.88;2.40;;;;;;;15.86;47.71;98218.81;5094710;28;20028;-70
2023/03/08 07:13:59;;;;;;;4.38;2.60;;;;;;;15.89;47.56;98218.66;5092094;28;20039;-69
2023/03/08 07:16:25;;;;;;;4.30;2.47;;;;;;;15.85;47.87;98207.47;5093472;28;20035;-70
2023/03/08 07:18:51;;;;;;;4.07;2.47;;;;;;;15.86;47.67;98203.03;5091887;28;20028;-69
2023/03/08 07:21:16;;;;;;;3.53;2.30;;;;;;;15.89;47.62;98221.28;5093264;28;20484;-70
2023/03/08 07:23:42;;;;;;;3.95;2.38;;;;;;;15.88;47.94;98211.72;5093174;28;20027;-69
2023/03/08 07:26:08;;;;;;;4.22;2.50;;;;;;;15.88;47.71;98215.16;5093106;28;20549;-70
2023/03/08 07:28:34;;;;;;;3.65;2.35;;;;;;;15.89;47.64;98218.66;5093039;28;20024;-70
2023/03/08 07:30:59;;;;;;;3.95;2.45;;;;;;;15.89;48.02;98224.75;5093199;28;20063;-69
2023/03/08 07:33:25;;;;;;;4.40;2.20;;;;;;;15.93;47.71;98209.69;5092933;28;20047;-70
2023/03/08 07:35:50;;;;;;;3.35;2.15;;;;;;;15.94;47.37;98212.19;5093124;28;20032;-70
2023/03/08 07:38:17;;;;;;;3.85;2.20;;;;;;;15.94;47.32;98221.91;5092935;28;20058;-70
2023/03/08 07:40:42;;;;;;;3.92;2.17;;;;;;;15.96;47.51;98215.59;5093008;28;20101;-69
2023/03/08 07:43:07;;;;;;;3.40;1.90;;;;;;;15.96;47.37;98222.66;5093034;28;20468;-70
2023/03/08 07:45:33;;;;;;;2.80;1.80;;;;;;;15.98;47.46;98223.38;5092646;28;20035;-70
2023/03/08 07:47:58;;;;;;;3.78;2.13;;;;;;;15.96;47.40;98222.66;5091262;28;20044;-70
2023/03/08 07:50:24;;;;;;;3.88;2.13;;;;;;;15.98;47.29;98223.38;5091281;28;20036;-69
2023/03/08 07:52:50;;;;;;;2.63;1.58;;;;;;;15.98;47.21;98212.88;5092936;28;20039;-70
2023/03/08 07:55:16;;;;;;;3.42;1.90;;;;;;;16.00;47.29;98213.63;5092633;28;20032;-69
2023/03/08 07:57:41;;;;;;;3.65;2.17;;;;;;;16.00;47.20;98195.22;5092295;28;20017;-70
2023/03/08 08:00:08;;;;;;;3.53;2.00;;;;;;;16.00;47.01;98195.22;5091571;28;20052;-70
2023/03/08 08:02:34;;;;;;;3.33;1.70;;;;;;;16.00;47.49;98192.59;5090793;28;20074;-68
2023/03/08 08:05:01;;;;;;;3.80;1.98;;;;;;;16.01;47.27;98196.91;5092492;28;20016;-70
2023/03/08 08:07:26;;;;;;;4.00;2.15;;;;;;;16.00;47.34;98189.97;5092565;28;20020;-70
2023/03/08 08:09:52;;;;;;;3.30;1.90;;;;;;;16.01;47.20;98186.38;5091817;28;20023;-69
2023/03/08 08:12:18;;;;;;;2.85;1.70;;;;;;;16.02;47.33;98184.59;5092180;28;20473;-70
2023/03/08 08:14:43;;;;;;;3.33;2.05;;;;;;;16.02;47.39;98187.25;5092584;28;20035;-70
2023/03/08 08:17:11;;;;;;;3.38;2.00;;;;;;;16.00;47.49;98174.16;5092506;28;20091;-68
2023/03/08 08:19:37;;;;;;;2.97;1.77;;;;;;;16.02;47.29;98181.97;5092838;28;20027;-69
2023/03/08 08:22:03;;;;;;;3.75;1.98;;;;;;;16.04;47.41;98190.63;5091341;28;20030;-70
2023/03/08 08:24:29;;;;;;;3.08;1.92;;;;;;;16.04;47.10;98191.44;5091623;28;20498;-70
2023/03/08 08:26:55;;;;;;;3.13;1.90;;;;;;;16.03;47.14;98189.75;5092754;28;20043;-69
2023/03/08 08:29:21;;;;;;;4.10;1.95;;;;;;;16.04;47.33;98183.56;5092617;28;20028;-68
2023/03/08 08:31:47;;;;;;;3.05;1.80;;;;;;;16.01;47.50;98181.13;5091143;28;20665;-68
2023/03/08 08:34:12;;;;;;;4.07;2.22;;;;;;;16.04;47.44;98191.44;5092640;28;20035;-69
2023/03/08 08:36:38;;;;;;;3.58;1.90;;;;;;;16.04;47.30;98201.97;5092820;28;20028;-70
2023/03/08 08:39:03;;;;;;;4.18;2.00;;;;;;;16.04;47.19;98207.22;5092474;28;20031;-70
2023/03/08 08:41:30;;;;;;;3.28;1.75;;;;;;;16.05;47.45;98208.94;5092399;28;20094;-69
2023/03/08 08:43:57;;;;;;;3.92;2.10;;;;;;;16.05;47.46;98203.69;5092378;28;20031;-70
2023/03/08 08:46:23;;;;;;;3.35;1.73;;;;;;;16.06;47.13;98194.00;5092286;28;20024;-71
2023/03/08 08:48:48;;;;;;;3.05;1.60;;;;;;;16.06;47.17;98205.38;5092254;28;20388;-69
2023/03/08 08:51:14;;;;;;;3.85;1.75;;;;;;;16.07;47.36;98207.06;5092126;28;20463;-70
2023/03/08 08:53:39;;;;;;;3.53;1.85;;;;;;;16.06;47.33;98215.91;5092213;28;20020;-70
2023/03/08 08:56:13;;;;;;;3.42;2.05;;;;;;;16.08;47.17;98224.53;5092397;28;20024;-70
2023/03/08 08:58:38;;;;;;;3.25;1.60;;;;;;;16.08;47.36;98207.91;5092514;28;20020;-68
2023/03/08 09:01:04;;;;;;;3.15;1.60;;;;;;;16.07;47.22;98228.13;5091741;28;20030;-70
2023/03/08 09:03:29;;;;;;;2.83;1.60;;;;;;;16.09;47.35;98225.41;5092074;28;20502;-70
2023/03/08 09:05:57;;;;;;;3.08;1.75;;;;;;;16.07;47.17;98217.59;5091980;28;20085;-70
2023/03/08 09:08:22;;;;;;;2.85;1.88;;;;;;;16.09;47.19;98226.22;5091665;28;20067;-69
2023/03/08 09:10:48;;;;;;;2.95;1.70;;;;;;;16.10;47.45;98225.31;5092216;28;20044;-70
2023/03/08 09:13:13;;;;;;;3.40;1.95;;;;;;;16.09;47.36;98225.41;5091882;28;20490;-69
2023/03/08 09:15:39;;;;;;;3.10;1.77;;;;;;;16.10;47.29;98235.84;5091557;28;20060;-67
2023/03/08 09:18:04;;;;;;;2.20;1.50;;;;;;;16.12;47.22;98240.16;5091886;28;20073;-68
2023/03/08 09:20:30;;;;;;;2.80;1.67;;;;;;;16.10;47.23;98243.72;5092220;28;20028;-72
2023/03/08 09:22:55;;;;;;;3.42;1.90;;;;;;;16.14;47.35;98254.06;5092701;28;20377;-69
2023/03/08 09:25:22;;;;;;;3.30;1.80;;;;;;;16.14;47.24;98244.38;5092932;28;20107;-71
2023/03/08 09:27:48;;;;;;;3.00;1.90;;;;;;;16.15;47.80;98256.59;5092757;28;20020;-69
2023/03/08 09:30:16;;;;;;;3.40;1.75;;;;;;;16.16;47.41;98247.75;5092207;28;20020;-69
2023/03/08 09:32:41;;;;;;;4.13;1.92;;;;;;;16.17;47.59;98251.25;5092553;28;20020;-69
2023/03/08 09:35:07;;;;;;;3.00;1.92;;;;;;;16.17;47.79;98244.19;5092618;28;20036;-70
2023/03/08 09:37:32;;;;;;;3.45;1.90;;;;;;;16.20;47.87;98253.69;5095625;28;20028;-67
2023/03/08 09:39:59;;;;;;;3.35;1.80;;;;;;;16.21;47.91;98255.38;5095524;28;20039;-70
2023/03/08 09:42:33;;;;;;;3.13;1.75;;;;;;;16.21;47.90;98271.16;5095077;28;20031;-70
2023/03/08 09:45:14;;;;;;;3.13;1.80;;;;;;;16.22;47.80;98270.22;5095184;28;20032;-69
2023/03/08 09:47:51;;;;;;;3.00;1.90;;;;;;;16.24;47.23;98268.38;5095265;28;20082;-70
2023/03/08 09:50:38;;;;;;;2.75;1.70;;;;;;;16.25;47.41;98262.16;5093732;28;20040;-71
2023/03/08 09:53:28;;;;;;;2.90;1.60;;;;;;;16.24;47.55;98263.94;5095212;28;20365;-70
2023/03/08 09:56:19;;;;;;;2.90;1.55;;;;;;;16.26;47.69;98263.00;5095025;28;20028;-69
2023/03/08 09:58:58;;;;;;;3.05;1.63;;;;;;;16.27;47.51;98268.16;5094775;28;20020;-71
2023/03/08 10:01:48;;;;;;;2.53;1.40;;;;;;;16.27;47.73;98260.28;5094937;28;20101;-70
2023/03/08 10:04:39;;;;;;;2.40;1.50;;;;;;;16.27;47.83;98255.00;5094889;28;20028;-70
2023/03/08 10:07:20;;;;;;;3.10;1.67;;;;;;;16.31;47.33;98239.88;5095119;28;20027;-68
2023/03/08 10:10:33;;;;;;;3.40;1.48;;;;;;;16.31;47.69;98240.72;5094825;28;20028;-69
2023/03/08 10:13:04;;;;;;;3.15;1.52;;;;;;;16.30;47.53;98233.78;5090657;28;20039;-69
2023/03/08 10:15:32;;;;;;;2.40;1.40;;;;;;;16.30;47.74;98223.25;5094478;28;20064;-70
2023/03/08 10:18:10;;;;;;;2.90;1.60;;;;;;;16.32;47.68;98213.47;5094666;28;20056;-72
2023/03/08 10:20:39;;;;;;;3.80;1.60;;;;;;;16.33;47.59;98207.25;5094591;28;20032;-69
2023/03/08 10:23:16;;;;;;;3.58;1.80;;;;;;;16.34;47.74;98197.56;5094720;28;20144;-69
2023/03/08 10:25:43;;;;;;;2.85;1.58;;;;;;;16.36;47.71;98206.22;5092997;28;20024;-70
2023/03/08 10:28:17;;;;;;;2.88;1.48;;;;;;;16.36;47.84;98217.59;5094128;28;20020;-71
2023/03/08 10:30:48;;;;;;;2.90;1.50;;;;;;;16.38;47.26;98222.78;5094458;28;20024;-70
2023/03/08 10:33:16;;;;;;;2.90;1.40;;;;;;;16.40;47.54;98222.66;5094276;28;20024;-71
2023/03/08 10:36:19;;;;;;;3.45;2.00;;;;;;;16.41;47.30;98224.38;5094232;28;20600;-70
2023/03/08 10:38:59;;;;;;;2.47;1.52;;;;;;;16.43;47.56;98222.50;5031744;28;20045;-72
2023/03/08 10:41:25;;;;;;;3.30;1.73;;;;;;;16.42;47.62;98220.81;5013138;28;20120;-70
2023/03/08 10:43:53;;;;;;;2.80;1.60;;;;;;;16.45;47.45;98225.88;5014817;28;20040;-70
2023/03/08 10:46:29;;;;;;;3.10;1.60;;;;;;;16.45;47.56;98228.50;5014491;28;20084;-69
2023/03/08 10:49:06;;;;;;;3.13;1.42;;;;;;;16.46;47.49;98211.78;5031323;28;20041;-69
2023/03/08 10:51:31;;;;;;;2.88;1.70;;;;;;;16.47;47.31;98208.19;5031661;28;20038;-70
2023/03/08 10:53:58;;;;;;;3.00;1.65;;;;;;;16.48;47.51;98215.97;5014904;28;20497;-70
2023/03/08 10:56:49;;;;;;;3.33;1.60;;;;;;;16.50;47.21;98200.09;5031003;28;20105;-69
2023/03/08 10:59:33;;;;;;;3.17;1.27;;;;;;;16.49;47.54;98185.25;5031275;28;20033;-70
2023/03/08 11:02:17;;;;;;;3.20;1.58;;;;;;;16.51;47.38;98204.41;5031369;28;20049;-70
2023/03/08 11:04:56;;;;;;;2.42;1.50;;;;;;;16.51;47.37;98207.91;5031341;28;20034;-70
2023/03/08 11:07:30;;;;;;;2.50;1.40;;;;;;;16.51;47.25;98236.00;5031331;28;20140;-70
2023/03/08 11:10:11;;;;;;;2.83;1.38;;;;;;;16.53;47.38;98207.81;5030627;28;20091;-69
2023/03/08 11:12:37;;;;;;;2.42;1.48;;;;;;;16.53;47.70;98186.75;5031073;28;20030;-69
2023/03/08 11:15:12;;;;;;;3.25;1.70;;;;;;;16.53;47.44;98186.75;5082608;28;20047;-70
2023/03/08 11:17:39;;;;;;;2.95;1.60;;;;;;;16.53;47.61;98202.56;5093536;28;20028;-70
2023/03/08 11:20:17;;;;;;;2.92;1.80;;;;;;;16.56;47.62;98210.25;5093420;28;20020;-70
2023/03/08 11:23:20;;;;;;;2.90;1.52;;;;;;;16.56;47.49;98202.34;5093574;28;20032;-69
2023/03/08 11:25:54;;;;;;;3.35;1.48;;;;;;;16.58;47.27;98208.38;5085992;28;20067;-70
2023/03/08 11:28:25;;;;;;;3.00;1.40;;;;;;;16.58;47.54;98205.75;5093356;28;20060;-70
2023/03/08 11:30:57;;;;;;;3.25;1.48;;;;;;;16.60;47.36;98210.91;5092051;28;20032;-70
2023/03/08 11:33:25;;;;;;;3.33;1.70;;;;;;;16.60;47.47;98219.66;5093127;28;20480;-70
2023/03/08 11:35:56;;;;;;;3.28;1.25;;;;;;;16.61;47.74;98202.06;5093126;28;20099;-71
2023/03/08 11:38:25;;;;;;;2.40;1.23;;;;;;;16.63;47.58;98213.34;5093104;28;20052;-70